sensor_id;sensor_type;location;lat;lon;timestamp;pressure;altitude;pressure_sealevel;temperature;humidity
38786;BME280;24535;45.508;12.252;2023-04-15T00:00:15;100443.25;;;12.59;60.45
38786;BME280;24535;45.508;12.252;2023-04-15T00:02:41;100444.59;;;12.54;60.44
38786;BME280;24535;45.508;12.252;2023-04-15T00:05:06;100444.97;;;12.49;60.65
38786;BME280;24535;45.508;12.252;2023-04-15T00:07:32;100441.75;;;12.46;60.72
38786;BME280;24535;45.508;12.252;2023-04-15T00:09:58;100438.50;;;12.42;60.98
38786;BME280;24535;45.508;12.252;2023-04-15T00:12:24;100435.03;;;12.42;61.54
38786;BME280;24535;45.508;12.252;2023-04-15T00:14:53;100429.13;;;12.38;61.23
38786;BME280;24535;45.508;12.252;2023-04-15T00:17:21;100435.16;;;12.40;61.94
38786;BME280;24535;45.508;12.252;2023-04-15T00:19:46;100428.31;;;12.37;61.59
38786;BME280;24535;45.508;12.252;2023-04-15T00:22:12;100433.44;;;12.39;62.56
38786;BME280;24535;45.508;12.252;2023-04-15T00:24:38;100443.78;;;12.42;61.65
38786;BME280;24535;45.508;12.252;2023-04-15T00:27:06;100431.53;;;12.41;61.76
38786;BME280;24535;45.508;12.252;2023-04-15T00:29:32;100434.66;;;12.46;62.52
38786;BME280;24535;45.508;12.252;2023-04-15T00:31:58;100435.25;;;12.50;61.88
38786;BME280;24535;45.508;12.252;2023-04-15T00:34:23;100424.81;;;12.48;62.51
38786;BME280;24535;45.508;12.252;2023-04-15T00:36:52;100423.47;;;12.43;62.55
38786;BME280;24535;45.508;12.252;2023-04-15T00:39:17;100431.63;;;12.40;62.53
38786;BME280;24535;45.508;12.252;2023-04-15T00:41:43;100428.31;;;12.37;62.04
38786;BME280;24535;45.508;12.252;2023-04-15T00:44:09;100420.38;;;12.37;62.04
38786;BME280;24535;45.508;12.252;2023-04-15T00:46:36;100428.31;;;12.37;61.72
38786;BME280;24535;45.508;12.252;2023-04-15T00:49:06;100422.19;;;12.37;62.59
38786;BME280;24535;45.508;12.252;2023-04-15T00:51:32;100422.41;;;12.34;62.69
38786;BME280;24535;45.508;12.252;2023-04-15T00:54:01;100423.38;;;12.33;62.28
38786;BME280;24535;45.508;12.252;2023-04-15T00:56:28;100426.72;;;12.35;62.83
38786;BME280;24535;45.508;12.252;2023-04-15T00:58:54;100438.03;;;12.37;62.35
38786;BME280;24535;45.508;12.252;2023-04-15T01:01:20;100433.44;;;12.39;62.78
38786;BME280;24535;45.508;12.252;2023-04-15T01:03:48;100430.94;;;12.37;61.92
38786;BME280;24535;45.508;12.252;2023-04-15T01:06:14;100423.00;;;12.37;62.67
38786;BME280;24535;45.508;12.252;2023-04-15T01:08:41;100429.97;;;12.38;62.56
38786;BME280;24535;45.508;12.252;2023-04-15T01:11:07;100438.13;;;12.35;62.82
38786;BME280;24535;45.508;12.252;2023-04-15T01:13:33;100432.97;;;12.34;62.21
38786;BME280;24535;45.508;12.252;2023-04-15T01:15:59;100428.78;;;12.31;62.71
38786;BME280;24535;45.508;12.252;2023-04-15T01:18:26;100427.00;;;12.32;62.84
38786;BME280;24535;45.508;12.252;2023-04-15T01:20:52;100417.63;;;12.28;62.44
38786;BME280;24535;45.508;12.252;2023-04-15T01:23:18;100419.06;;;12.21;62.59
38786;BME280;24535;45.508;12.252;2023-04-15T01:25:48;100419.06;;;12.21;62.03
38786;BME280;24535;45.508;12.252;2023-04-15T01:28:19;100420.16;;;12.18;63.15
38786;BME280;24535;45.508;12.252;2023-04-15T01:30:45;100422.09;;;12.16;62.68
38786;BME280;24535;45.508;12.252;2023-04-15T01:33:10;100410.09;;;12.12;62.26
38786;BME280;24535;45.508;12.252;2023-04-15T01:35:36;100404.31;;;12.07;62.47
38786;BME280;24535;45.508;12.252;2023-04-15T01:38:14;100395.53;;;12.06;63.06
38786;BME280;24535;45.508;12.252;2023-04-15T01:40:49;100392.44;;;12.01;63.14
38786;BME280;24535;45.508;12.252;2023-04-15T01:43:14;100405.63;;;12.01;62.70
38786;BME280;24535;45.508;12.252;2023-04-15T01:45:40;100398.06;;;11.97;63.06
38786;BME280;24535;45.508;12.252;2023-04-15T01:48:05;100400.09;;;11.93;63.24
38786;BME280;24535;45.508;12.252;2023-04-15T01:50:31;100398.06;;;11.97;63.17
38786;BME280;24535;45.508;12.252;2023-04-15T01:52:57;100400.47;;;12.00;63.10
38786;BME280;24535;45.508;12.252;2023-04-15T01:55:22;100401.41;;;11.99;63.69
38786;BME280;24535;45.508;12.252;2023-04-15T01:57:47;100390.75;;;12.00;63.73
38786;BME280;24535;45.508;12.252;2023-04-15T02:00:13;100385.47;;;12.00;63.29
38786;BME280;24535;45.508;12.252;2023-04-15T02:02:39;100379.38;;;12.00;63.42
38786;BME280;24535;45.508;12.252;2023-04-15T02:05:05;100378.53;;;11.99;63.82
38786;BME280;24535;45.508;12.252;2023-04-15T02:07:30;100386.44;;;11.99;63.71
38786;BME280;24535;45.508;12.252;2023-04-15T02:09:56;100394.38;;;11.99;63.91
38786;BME280;24535;45.508;12.252;2023-04-15T02:12:22;100396.03;;;12.00;63.91
38786;BME280;24535;45.508;12.252;2023-04-15T02:14:47;100404.66;;;12.02;64.39
38786;BME280;24535;45.508;12.252;2023-04-15T02:17:12;100400.22;;;12.03;64.45
38786;BME280;24535;45.508;12.252;2023-04-15T02:19:40;100392.19;;;12.04;64.54
38786;BME280;24535;45.508;12.252;2023-04-15T02:22:06;100393.75;;;12.07;63.47
38786;BME280;24535;45.508;12.252;2023-04-15T02:24:33;100389.44;;;12.06;63.86
38786;BME280;24535;45.508;12.252;2023-04-15T02:26:59;100386.41;;;12.10;63.63
38786;BME280;24535;45.508;12.252;2023-04-15T02:29:25;100388.13;;;12.11;63.67
38786;BME280;24535;45.508;12.252;2023-04-15T02:31:51;100387.03;;;12.14;64.35
38786;BME280;24535;45.508;12.252;2023-04-15T02:34:16;100387.63;;;12.18;64.36
38786;BME280;24535;45.508;12.252;2023-04-15T02:36:42;100379.56;;;12.19;63.72
38786;BME280;24535;45.508;12.252;2023-04-15T02:39:13;100381.13;;;12.22;64.04
38786;BME280;24535;45.508;12.252;2023-04-15T02:41:42;100378.25;;;12.25;63.91
38786;BME280;24535;45.508;12.252;2023-04-15T02:44:17;100384.13;;;12.28;64.13
38786;BME280;24535;45.508;12.252;2023-04-15T02:46:45;100380.53;;;12.29;63.93
38786;BME280;24535;45.508;12.252;2023-04-15T02:49:17;100372.47;;;12.31;64.21
38786;BME280;24535;45.508;12.252;2023-04-15T02:51:42;100376.69;;;12.33;64.19
38786;BME280;24535;45.508;12.252;2023-04-15T02:54:08;100385.44;;;12.34;64.08
38786;BME280;24535;45.508;12.252;2023-04-15T02:56:48;100380.63;;;12.39;64.36
38786;BME280;24535;45.508;12.252;2023-04-15T02:59:17;100381.72;;;12.36;63.35
38786;BME280;24535;45.508;12.252;2023-04-15T03:01:43;100384.22;;;12.38;63.83
38786;BME280;24535;45.508;12.252;2023-04-15T03:04:08;100383.41;;;12.37;63.88
38786;BME280;24535;45.508;12.252;2023-04-15T03:06:34;100375.59;;;12.36;63.88
38786;BME280;24535;45.508;12.252;2023-04-15T03:09:00;100379.44;;;12.32;63.85
38786;BME280;24535;45.508;12.252;2023-04-15T03:11:28;100377.50;;;12.34;63.60
38786;BME280;24535;45.508;12.252;2023-04-15T03:13:53;100389.03;;;12.33;64.43
38786;BME280;24535;45.508;12.252;2023-04-15T03:16:19;100384.47;;;12.35;63.61
38786;BME280;24535;45.508;12.252;2023-04-15T03:18:45;100386.28;;;12.34;64.34
38786;BME280;24535;45.508;12.252;2023-04-15T03:21:11;100387.25;;;12.33;64.17
38786;BME280;24535;45.508;12.252;2023-04-15T03:23:36;100390.84;;;12.32;64.00
38786;BME280;24535;45.508;12.252;2023-04-15T03:26:03;100388.22;;;12.32;64.42
38786;BME280;24535;45.508;12.252;2023-04-15T03:28:29;100385.56;;;12.32;63.62
38786;BME280;24535;45.508;12.252;2023-04-15T03:30:55;100388.22;;;12.32;63.89
38786;BME280;24535;45.508;12.252;2023-04-15T03:33:20;100390.72;;;12.34;64.48
38786;BME280;24535;45.508;12.252;2023-04-15T03:35:46;100386.41;;;12.33;64.15
38786;BME280;24535;45.508;12.252;2023-04-15T03:38:11;100388.22;;;12.32;64.88
38786;BME280;24535;45.508;12.252;2023-04-15T03:40:39;100389.75;;;12.35;64.34
38786;BME280;24535;45.508;12.252;2023-04-15T03:43:05;100394.94;;;12.36;64.40
38786;BME280;24535;45.508;12.252;2023-04-15T03:45:31;100393.97;;;12.37;64.37
38786;BME280;24535;45.508;12.252;2023-04-15T03:47:57;100390.94;;;12.42;64.40
38786;BME280;24535;45.508;12.252;2023-04-15T03:50:22;100384.44;;;12.46;64.96
38786;BME280;24535;45.508;12.252;2023-04-15T03:52:47;100390.56;;;12.47;64.76
38786;BME280;24535;45.508;12.252;2023-04-15T03:55:13;100387.09;;;12.46;64.35
38786;BME280;24535;45.508;12.252;2023-04-15T03:57:40;100398.25;;;12.50;64.15
38786;BME280;24535;45.508;12.252;2023-04-15T04:00:06;100393.81;;;12.50;64.26
38786;BME280;24535;45.508;12.252;2023-04-15T04:02:33;100387.56;;;12.51;64.83
38786;BME280;24535;45.508;12.252;2023-04-15T04:04:58;100389.25;;;12.52;65.16
38786;BME280;24535;45.508;12.252;2023-04-15T04:07:24;100390.19;;;12.51;65.16
38786;BME280;24535;45.508;12.252;2023-04-15T04:09:49;100388.53;;;12.50;64.16
38786;BME280;24535;45.508;12.252;2023-04-15T04:12:15;100403.69;;;12.48;65.00
38786;BME280;24535;45.508;12.252;2023-04-15T04:14:41;100401.13;;;12.47;64.86
38786;BME280;24535;45.508;12.252;2023-04-15T04:17:06;100411.59;;;12.48;65.33
38786;BME280;24535;45.508;12.252;2023-04-15T04:19:32;100408.00;;;12.49;65.07
38786;BME280;24535;45.508;12.252;2023-04-15T04:21:58;100408.59;;;12.53;64.99
38786;BME280;24535;45.508;12.252;2023-04-15T04:24:23;100413.03;;;12.52;65.05
38786;BME280;24535;45.508;12.252;2023-04-15T04:26:48;100413.03;;;12.52;65.55
38786;BME280;24535;45.508;12.252;2023-04-15T04:29:14;100421.66;;;12.54;65.92
38786;BME280;24535;45.508;12.252;2023-04-15T04:31:40;100419.84;;;12.55;65.60
38786;BME280;24535;45.508;12.252;2023-04-15T04:34:05;100418.66;;;12.59;66.04
38786;BME280;24535;45.508;12.252;2023-04-15T04:36:31;100416.59;;;12.62;65.92
38786;BME280;24535;45.508;12.252;2023-04-15T04:38:57;100416.59;;;12.62;65.44
38786;BME280;24535;45.508;12.252;2023-04-15T04:41:22;100415.06;;;12.60;65.92
38786;BME280;24535;45.508;12.252;2023-04-15T04:43:48;100426.47;;;12.60;65.56
38786;BME280;24535;45.508;12.252;2023-04-15T04:46:13;100423.81;;;12.60;65.89
38786;BME280;24535;45.508;12.252;2023-04-15T04:48:39;100415.31;;;12.57;65.54
38786;BME280;24535;45.508;12.252;2023-04-15T04:51:05;100417.94;;;12.57;65.87
38786;BME280;24535;45.508;12.252;2023-04-15T04:53:32;100418.66;;;12.59;66.20
38786;BME280;24535;45.508;12.252;2023-04-15T04:55:58;100416.97;;;12.58;66.80
38786;BME280;24535;45.508;12.252;2023-04-15T04:58:23;100422.72;;;12.63;66.25
38786;BME280;24535;45.508;12.252;2023-04-15T05:00:49;100432.22;;;12.66;66.92
38786;BME280;24535;45.508;12.252;2023-04-15T05:03:14;100432.81;;;12.69;66.79
38786;BME280;24535;45.508;12.252;2023-04-15T05:05:40;100429.06;;;12.72;66.99
38786;BME280;24535;45.508;12.252;2023-04-15T05:08:06;100427.28;;;12.72;66.70
38786;BME280;24535;45.508;12.252;2023-04-15T05:10:32;100427.00;;;12.75;66.82
38786;BME280;24535;45.508;12.252;2023-04-15T05:12:57;100426.91;;;12.77;67.24
38786;BME280;24535;45.508;12.252;2023-04-15T05:15:22;100429.19;;;12.81;67.06
38786;BME280;24535;45.508;12.252;2023-04-15T05:17:48;100437.44;;;12.88;67.47
38786;BME280;24535;45.508;12.252;2023-04-15T05:20:14;100442.22;;;12.94;67.09
38786;BME280;24535;45.508;12.252;2023-04-15T05:22:40;100438.13;;;13.01;66.78
38786;BME280;24535;45.508;12.252;2023-04-15T05:25:05;100426.34;;;13.05;67.60
38786;BME280;24535;45.508;12.252;2023-04-15T05:27:31;100433.63;;;13.13;67.21
38786;BME280;24535;45.508;12.252;2023-04-15T05:29:57;100437.31;;;13.22;66.77
38786;BME280;24535;45.508;12.252;2023-04-15T05:32:22;100432.38;;;13.28;67.72
38786;BME280;24535;45.508;12.252;2023-04-15T05:34:47;100441.50;;;13.35;66.66
38786;BME280;24535;45.508;12.252;2023-04-15T05:37:13;100437.22;;;13.44;67.65
38786;BME280;24535;45.508;12.252;2023-04-15T05:39:38;100431.19;;;13.53;66.65
38786;BME280;24535;45.508;12.252;2023-04-15T05:42:04;100429.69;;;13.60;66.57
38786;BME280;24535;45.508;12.252;2023-04-15T05:44:30;100435.75;;;13.72;66.63
38786;BME280;24535;45.508;12.252;2023-04-15T05:46:56;100429.69;;;13.81;66.28
38786;BME280;24535;45.508;12.252;2023-04-15T05:49:22;100439.59;;;13.89;66.80
38786;BME280;24535;45.508;12.252;2023-04-15T05:51:47;100446.88;;;13.97;66.59
38786;BME280;24535;45.508;12.252;2023-04-15T05:54:13;100451.78;;;14.01;65.74
38786;BME280;24535;45.508;12.252;2023-04-15T05:56:38;100454.31;;;14.03;66.45
38786;BME280;24535;45.508;12.252;2023-04-15T05:59:04;100454.19;;;14.04;66.24
38786;BME280;24535;45.508;12.252;2023-04-15T06:01:29;100456.97;;;14.03;66.18
38786;BME280;24535;45.508;12.252;2023-04-15T06:03:55;100460.72;;;14.00;66.06
38786;BME280;24535;45.508;12.252;2023-04-15T06:06:21;100456.38;;;13.99;65.60
38786;BME280;24535;45.508;12.252;2023-04-15T06:08:47;100465.75;;;14.03;65.78
38786;BME280;24535;45.508;12.252;2023-04-15T06:11:12;100457.22;;;14.00;65.24
38786;BME280;24535;45.508;12.252;2023-04-15T06:13:37;100443.16;;;13.99;65.70
38786;BME280;24535;45.508;12.252;2023-04-15T06:16:03;100448.88;;;14.04;65.61
38786;BME280;24535;45.508;12.252;2023-04-15T06:18:29;100450.28;;;14.08;65.66
38786;BME280;24535;45.508;12.252;2023-04-15T06:20:54;100445.72;;;14.10;66.12
38786;BME280;24535;45.508;12.252;2023-04-15T06:23:20;100451.59;;;14.14;65.73
38786;BME280;24535;45.508;12.252;2023-04-15T06:25:45;100453.84;;;14.19;65.37
38786;BME280;24535;45.508;12.252;2023-04-15T06:28:10;100450.78;;;14.23;65.66
38786;BME280;24535;45.508;12.252;2023-04-15T06:30:36;100454.97;;;14.26;65.44
38786;BME280;24535;45.508;12.252;2023-04-15T06:33:02;100456.53;;;14.28;65.19
38786;BME280;24535;45.508;12.252;2023-04-15T06:35:29;100455.53;;;14.29;64.97
38786;BME280;24535;45.508;12.252;2023-04-15T06:37:55;100463.09;;;14.34;65.34
38786;BME280;24535;45.508;12.252;2023-04-15T06:40:21;100467.19;;;14.38;65.77
38786;BME280;24535;45.508;12.252;2023-04-15T06:42:47;100467.72;;;14.42;65.39
38786;BME280;24535;45.508;12.252;2023-04-15T06:45:12;100470.94;;;14.45;65.13
38786;BME280;24535;45.508;12.252;2023-04-15T06:47:38;100468.28;;;14.45;65.17
38786;BME280;24535;45.508;12.252;2023-04-15T06:50:04;100472.38;;;14.49;65.22
38786;BME280;24535;45.508;12.252;2023-04-15T06:52:30;100468.63;;;14.52;64.93
38786;BME280;24535;45.508;12.252;2023-04-15T06:54:56;100464.88;;;14.54;65.14
38786;BME280;24535;45.508;12.252;2023-04-15T06:57:21;100459.28;;;14.57;65.57
38786;BME280;24535;45.508;12.252;2023-04-15T06:59:46;100466.84;;;14.62;64.91
38786;BME280;24535;45.508;12.252;2023-04-15T07:02:12;100468.53;;;14.63;65.29
38786;BME280;24535;45.508;12.252;2023-04-15T07:04:38;100470.06;;;14.66;64.48
38786;BME280;24535;45.508;12.252;2023-04-15T07:07:04;100472.31;;;14.70;65.38
38786;BME280;24535;45.508;12.252;2023-04-15T07:09:30;100476.94;;;14.78;65.24
38786;BME280;24535;45.508;12.252;2023-04-15T07:11:56;100476.81;;;14.79;65.15
38786;BME280;24535;45.508;12.252;2023-04-15T07:14:22;100478.91;;;14.86;65.05
38786;BME280;24535;45.508;12.252;2023-04-15T07:16:47;100475.84;;;14.90;65.04
38786;BME280;24535;45.508;12.252;2023-04-15T07:19:12;100478.78;;;14.97;65.03
38786;BME280;24535;45.508;12.252;2023-04-15T07:21:38;100491.53;;;15.03;64.81
38786;BME280;24535;45.508;12.252;2023-04-15T07:24:04;100488.44;;;15.07;64.66
38786;BME280;24535;45.508;12.252;2023-04-15T07:26:29;100495.16;;;15.12;64.00
38786;BME280;24535;45.508;12.252;2023-04-15T07:28:55;100490.13;;;15.08;63.83
38786;BME280;24535;45.508;12.252;2023-04-15T07:31:20;100488.44;;;15.07;63.71
38786;BME280;24535;45.508;12.252;2023-04-15T07:33:46;100486.47;;;15.09;63.87
38786;BME280;24535;45.508;12.252;2023-04-15T07:36:11;100489.56;;;15.15;64.31
38786;BME280;24535;45.508;12.252;2023-04-15T07:38:38;100481.19;;;15.19;64.08
38786;BME280;24535;45.508;12.252;2023-04-15T07:41:06;100486.50;;;15.29;64.03
38786;BME280;24535;45.508;12.252;2023-04-15T07:43:32;100487.31;;;15.39;64.32
38786;BME280;24535;45.508;12.252;2023-04-15T07:45:57;100488.84;;;15.51;64.18
38786;BME280;24535;45.508;12.252;2023-04-15T07:48:24;100488.47;;;15.66;64.24
38786;BME280;24535;45.508;12.252;2023-04-15T07:50:49;100490.16;;;15.76;63.88
38786;BME280;24535;45.508;12.252;2023-04-15T07:53:18;100488.84;;;15.90;63.65
38786;BME280;24535;45.508;12.252;2023-04-15T07:55:44;100486.31;;;15.98;62.51
38786;BME280;24535;45.508;12.252;2023-04-15T07:58:10;100489.81;;;16.09;63.32
38786;BME280;24535;45.508;12.252;2023-04-15T08:00:36;100495.06;;;16.18;63.24
38786;BME280;24535;45.508;12.252;2023-04-15T08:03:02;100494.47;;;16.24;62.13
38786;BME280;24535;45.508;12.252;2023-04-15T08:05:28;100493.47;;;16.35;62.43
38786;BME280;24535;45.508;12.252;2023-04-15T08:07:53;100487.97;;;16.46;63.03
38786;BME280;24535;45.508;12.252;2023-04-15T08:10:19;100491.81;;;16.62;61.87
38786;BME280;24535;45.508;12.252;2023-04-15T08:12:44;100493.72;;;16.79;62.13
38786;BME280;24535;45.508;12.252;2023-04-15T08:15:13;100487.88;;;16.93;62.11
38786;BME280;24535;45.508;12.252;2023-04-15T08:17:38;100497.34;;;17.05;61.34
38786;BME280;24535;45.508;12.252;2023-04-15T08:20:05;100503.03;;;17.11;61.30
38786;BME280;24535;45.508;12.252;2023-04-15T08:22:30;100504.88;;;17.10;60.90
38786;BME280;24535;45.508;12.252;2023-04-15T08:24:56;100505.31;;;17.05;60.21
38786;BME280;24535;45.508;12.252;2023-04-15T08:27:22;100510.25;;;17.00;59.70
38786;BME280;24535;45.508;12.252;2023-04-15T08:29:47;100501.88;;;16.95;59.87
38786;BME280;24535;45.508;12.252;2023-04-15T08:32:13;100503.00;;;16.93;60.03
38786;BME280;24535;45.508;12.252;2023-04-15T08:34:41;100507.19;;;16.95;60.80
38786;BME280;24535;45.508;12.252;2023-04-15T08:37:06;100505.31;;;17.05;60.42
38786;BME280;24535;45.508;12.252;2023-04-15T08:39:32;100507.00;;;17.24;61.04
38786;BME280;24535;45.508;12.252;2023-04-15T08:42:02;100508.81;;;17.42;60.40
38786;BME280;24535;45.508;12.252;2023-04-15T08:44:33;100515.81;;;17.61;59.73
38786;BME280;24535;45.508;12.252;2023-04-15T08:47:02;100521.53;;;17.84;59.79
38786;BME280;24535;45.508;12.252;2023-04-15T08:49:29;100518.53;;;18.04;59.69
38786;BME280;24535;45.508;12.252;2023-04-15T08:51:57;100507.00;;;18.30;59.01
38786;BME280;24535;45.508;12.252;2023-04-15T08:54:23;100516.81;;;18.56;58.99
38786;BME280;24535;45.508;12.252;2023-04-15T08:56:49;100515.44;;;18.77;58.08
38786;BME280;24535;45.508;12.252;2023-04-15T08:59:14;100523.97;;;18.89;56.89
38786;BME280;24535;45.508;12.252;2023-04-15T09:01:40;100523.47;;;18.86;55.70
38786;BME280;24535;45.508;12.252;2023-04-15T09:04:06;100533.44;;;18.84;56.30
38786;BME280;24535;45.508;12.252;2023-04-15T09:06:32;100519.25;;;18.75;55.83
38786;BME280;24535;45.508;12.252;2023-04-15T09:08:58;100521.41;;;18.71;55.77
38786;BME280;24535;45.508;12.252;2023-04-15T09:11:24;100521.00;;;18.66;55.62
38786;BME280;24535;45.508;12.252;2023-04-15T09:13:50;100523.03;;;18.64;55.83
38786;BME280;24535;45.508;12.252;2023-04-15T09:16:16;100525.34;;;18.67;55.40
38786;BME280;24535;45.508;12.252;2023-04-15T09:18:41;100521.00;;;18.66;54.95
38786;BME280;24535;45.508;12.252;2023-04-15T09:23:36;100520.19;;;18.66;55.04
38786;BME280;24535;45.508;12.252;2023-04-15T09:26:02;100522.03;;;18.65;54.82
38786;BME280;24535;45.508;12.252;2023-04-15T09:28:28;100520.34;;;18.64;54.86
38786;BME280;24535;45.508;12.252;2023-04-15T09:31:01;100524.53;;;18.67;54.44
38786;BME280;24535;45.508;12.252;2023-04-15T09:33:28;100513.31;;;18.63;54.34
38786;BME280;24535;45.508;12.252;2023-04-15T09:36:03;100513.69;;;18.68;54.12
38786;BME280;24535;45.508;12.252;2023-04-15T09:38:30;100514.41;;;18.70;54.25
38786;BME280;24535;45.508;12.252;2023-04-15T09:40:56;100517.91;;;18.71;53.66
38786;BME280;24535;45.508;12.252;2023-04-15T09:43:22;100510.41;;;18.74;53.89
38786;BME280;24535;45.508;12.252;2023-04-15T09:46:01;100509.06;;;18.70;53.44
38786;BME280;24535;45.508;12.252;2023-04-15T09:48:26;100516.56;;;18.75;53.64
38786;BME280;24535;45.508;12.252;2023-04-15T09:50:53;100514.59;;;18.77;53.75
38786;BME280;24535;45.508;12.252;2023-04-15T09:53:20;100512.28;;;18.82;53.21
38786;BME280;24535;45.508;12.252;2023-04-15T09:55:51;100510.28;;;18.84;52.41
38786;BME280;24535;45.508;12.252;2023-04-15T09:58:18;100506.94;;;18.82;52.88
38786;BME280;24535;45.508;12.252;2023-04-15T10:00:46;100501.25;;;18.77;53.27
38786;BME280;24535;45.508;12.252;2023-04-15T10:03:15;100508.75;;;18.73;53.05
38786;BME280;24535;45.508;12.252;2023-04-15T10:05:43;100515.03;;;18.64;52.36
38786;BME280;24535;45.508;12.252;2023-04-15T10:08:08;100519.84;;;18.61;52.90
38786;BME280;24535;45.508;12.252;2023-04-15T10:10:34;100504.78;;;18.51;52.02
38786;BME280;24535;45.508;12.252;2023-04-15T10:12:59;100504.91;;;18.42;52.16
38786;BME280;24535;45.508;12.252;2023-04-15T10:15:27;100503.72;;;18.36;52.33
38786;BME280;24535;45.508;12.252;2023-04-15T10:17:53;100505.16;;;18.31;52.25
38786;BME280;24535;45.508;12.252;2023-04-15T10:20:21;100497.81;;;18.24;52.55
38786;BME280;24535;45.508;12.252;2023-04-15T10:22:47;100507.66;;;18.24;53.29
38786;BME280;24535;45.508;12.252;2023-04-15T10:25:14;100501.63;;;18.22;52.92
38786;BME280;24535;45.508;12.252;2023-04-15T10:27:39;100505.47;;;18.19;53.22
38786;BME280;24535;45.508;12.252;2023-04-15T10:30:08;100496.41;;;18.12;53.09
38786;BME280;24535;45.508;12.252;2023-04-15T10:32:36;100501.06;;;18.10;53.10
38786;BME280;24535;45.508;12.252;2023-04-15T10:35:03;100510.53;;;18.04;53.54
38786;BME280;24535;45.508;12.252;2023-04-15T10:37:34;100510.53;;;18.04;52.70
38786;BME280;24535;45.508;12.252;2023-04-15T10:40:24;100512.00;;;17.99;52.14
38786;BME280;24535;45.508;12.252;2023-04-15T10:42:53;100504.09;;;17.89;52.89
38786;BME280;24535;45.508;12.252;2023-04-15T10:45:18;100509.41;;;17.89;52.94
38786;BME280;24535;45.508;12.252;2023-04-15T10:47:44;100502.88;;;17.84;53.41
38786;BME280;24535;45.508;12.252;2023-04-15T10:50:09;100515.38;;;17.83;52.61
38786;BME280;24535;45.508;12.252;2023-04-15T10:52:39;100509.00;;;17.76;53.06
38786;BME280;24535;45.508;12.252;2023-04-15T10:57:37;100504.03;;;17.63;53.37
38786;BME280;24535;45.508;12.252;2023-04-15T11:00:11;100503.03;;;17.64;53.08
38786;BME280;24535;45.508;12.252;2023-04-15T11:05:14;100503.72;;;17.66;52.67
38786;BME280;24535;45.508;12.252;2023-04-15T11:12:51;100503.03;;;17.64;52.79
38786;BME280;24535;45.508;12.252;2023-04-15T11:20:35;100497.94;;;17.71;53.41
38786;BME280;24535;45.508;12.252;2023-04-15T11:23:01;100495.09;;;17.72;52.46
38786;BME280;24535;45.508;12.252;2023-04-15T11:25:29;100499.75;;;17.70;52.96
38786;BME280;24535;45.508;12.252;2023-04-15T11:27:55;100496.09;;;17.71;52.70
38786;BME280;24535;45.508;12.252;2023-04-15T11:30:24;100501.44;;;17.71;53.29
38786;BME280;24535;45.508;12.252;2023-04-15T11:32:51;100500.16;;;17.75;53.33
38786;BME280;24535;45.508;12.252;2023-04-15T11:35:17;100492.16;;;17.75;53.55
38786;BME280;24535;45.508;12.252;2023-04-15T11:37:47;100491.34;;;17.75;52.45
38786;BME280;24535;45.508;12.252;2023-04-15T11:40:14;100494.94;;;17.74;52.35
38786;BME280;24535;45.508;12.252;2023-04-15T11:42:45;100494.28;;;17.72;52.65
38786;BME280;24535;45.508;12.252;2023-04-15T11:45:13;100497.59;;;17.74;52.59
38786;BME280;24535;45.508;12.252;2023-04-15T11:47:41;100500.25;;;17.74;52.65
38786;BME280;24535;45.508;12.252;2023-04-15T11:50:31;100497.50;;;17.75;52.21
38786;BME280;24535;45.508;12.252;2023-04-15T11:52:59;100502.00;;;17.75;52.12
38786;BME280;24535;45.508;12.252;2023-04-15T11:55:26;100500.84;;;17.77;52.33
38786;BME280;24535;45.508;12.252;2023-04-15T12:00:32;100494.91;;;17.84;52.04
38786;BME280;24535;45.508;12.252;2023-04-15T12:06:30;100499.13;;;17.94;52.51
38786;BME280;24535;45.508;12.252;2023-04-15T12:08:59;100506.13;;;17.95;52.93
38786;BME280;24535;45.508;12.252;2023-04-15T12:13:53;100501.28;;;17.91;53.42
38786;BME280;24535;45.508;12.252;2023-04-15T12:16:19;100500.41;;;17.90;53.80
38786;BME280;24535;45.508;12.252;2023-04-15T12:18:45;100503.09;;;17.90;53.53
38786;BME280;24535;45.508;12.252;2023-04-15T12:21:12;100500.13;;;17.93;53.46
38786;BME280;24535;45.508;12.252;2023-04-15T12:23:53;100504.44;;;17.94;53.75
38786;BME280;24535;45.508;12.252;2023-04-15T12:26:27;100503.47;;;17.95;53.99
38786;BME280;24535;45.508;12.252;2023-04-15T12:29:00;100501.63;;;17.96;53.33
38786;BME280;24535;45.508;12.252;2023-04-15T12:31:26;100510.47;;;17.96;53.24
38786;BME280;24535;45.508;12.252;2023-04-15T12:33:54;100503.31;;;17.97;53.77
38786;BME280;24535;45.508;12.252;2023-04-15T12:36:20;100500.47;;;17.98;53.83
38786;BME280;24535;45.508;12.252;2023-04-15T12:38:45;100511.31;;;17.97;54.39
38786;BME280;24535;45.508;12.252;2023-04-15T12:41:11;100518.16;;;17.99;53.73
38786;BME280;24535;45.508;12.252;2023-04-15T12:43:36;100512.00;;;17.99;53.62
38786;BME280;24535;45.508;12.252;2023-04-15T12:46:02;100506.50;;;18.00;53.64
38786;BME280;24535;45.508;12.252;2023-04-15T12:48:29;100514.50;;;18.00;52.64
38786;BME280;24535;45.508;12.252;2023-04-15T12:50:55;100517.16;;;18.00;53.05
38786;BME280;24535;45.508;12.252;2023-04-15T12:53:20;100501.78;;;17.94;52.32
38786;BME280;24535;45.508;12.252;2023-04-15T12:55:45;100506.63;;;17.91;53.33
38786;BME280;24535;45.508;12.252;2023-04-15T12:58:11;100500.88;;;17.86;52.90
38786;BME280;24535;45.508;12.252;2023-04-15T13:00:36;100510.06;;;17.83;52.57
38786;BME280;24535;45.508;12.252;2023-04-15T13:03:05;100508.69;;;17.79;53.43